createdAt,value
2022-11-23T00:01:41.996Z,-0.60
2022-11-23T00:04:13.250Z,-0.60
2022-11-23T00:06:43.613Z,-0.60
2022-11-23T00:09:14.403Z,-0.60
2022-11-23T00:11:42.300Z,-0.60
2022-11-23T00:14:13.720Z,-0.60
2022-11-23T00:16:51.671Z,-0.70
2022-11-23T00:19:19.687Z,-0.70
2022-11-23T00:21:47.412Z,-0.70
2022-11-23T00:24:15.544Z,-0.70
2022-11-23T00:26:43.440Z,-0.60
2022-11-23T00:29:11.710Z,-0.70
2022-11-23T00:31:40.773Z,-0.70
2022-11-23T00:34:08.777Z,-0.70
2022-11-23T00:36:36.545Z,-0.70
2022-11-23T00:39:04.550Z,-0.70
2022-11-23T00:41:32.337Z,-0.70
2022-11-23T00:44:00.401Z,-0.70
2022-11-23T00:46:31.047Z,-0.70
2022-11-23T00:48:59.327Z,-0.80
2022-11-23T00:51:33.367Z,-0.90
2022-11-23T00:54:02.884Z,-0.90
2022-11-23T00:56:32.941Z,-0.90
2022-11-23T00:59:02.413Z,-0.90
2022-11-23T01:01:37.592Z,-1.00
2022-11-23T01:04:07.854Z,-1.00
2022-11-23T01:06:40.460Z,-1.00
2022-11-23T01:09:13.701Z,-1.00
2022-11-23T01:11:42.006Z,-1.10
2022-11-23T01:14:10.211Z,-1.10
2022-11-23T01:16:41.826Z,-1.10
2022-11-23T01:19:17.877Z,-1.00
2022-11-23T01:21:49.856Z,-1.10
2022-11-23T01:24:22.831Z,-1.00
2022-11-23T01:26:54.770Z,-1.10
2022-11-23T01:29:23.815Z,-1.10
2022-11-23T01:31:51.415Z,-1.20
2022-11-23T01:34:19.524Z,-1.30
2022-11-23T01:36:47.356Z,-1.40
2022-11-23T01:39:15.383Z,-1.50
2022-11-23T01:41:45.052Z,-1.40
2022-11-23T01:44:41.959Z,-1.40
2022-11-23T01:47:12.763Z,-1.40
2022-11-23T01:49:49.617Z,-1.50
2022-11-23T01:52:22.379Z,-1.50
2022-11-23T01:54:56.429Z,-1.50
2022-11-23T01:57:44.776Z,-1.50
2022-11-23T02:00:13.818Z,-1.50
2022-11-23T02:02:49.601Z,-1.60
2022-11-23T02:05:21.409Z,-1.60
2022-11-23T02:07:51.324Z,-1.70
2022-11-23T02:10:21.496Z,-1.70
2022-11-23T02:12:49.427Z,-1.70
2022-11-23T02:15:17.975Z,-1.70
2022-11-23T02:17:46.617Z,-1.80
2022-11-23T02:20:18.668Z,-1.80
2022-11-23T02:23:05.024Z,-1.70
2022-11-23T02:25:41.026Z,-1.60
2022-11-23T02:28:13.366Z,-1.50
2022-11-23T02:30:42.795Z,-1.50
2022-11-23T02:33:10.859Z,-1.40
2022-11-23T02:36:00.306Z,-1.40
2022-11-23T02:38:34.362Z,-1.40
2022-11-23T02:41:02.732Z,-1.50
2022-11-23T02:43:42.967Z,-1.70
2022-11-23T02:46:11.200Z,-1.70
2022-11-23T02:48:38.942Z,-1.80
2022-11-23T02:51:07.091Z,-1.80
2022-11-23T02:53:34.778Z,-1.90
2022-11-23T02:56:03.052Z,-1.80
2022-11-23T02:58:30.759Z,-1.80
2022-11-23T03:00:58.899Z,-1.80
2022-11-23T03:03:26.675Z,-1.80
2022-11-23T03:05:54.727Z,-1.70
2022-11-23T03:08:22.485Z,-1.60
2022-11-23T03:10:50.494Z,-1.60
2022-11-23T03:13:19.263Z,-1.60
2022-11-23T03:15:48.305Z,-1.70
2022-11-23T03:18:16.529Z,-1.70
2022-11-23T03:20:46.268Z,-1.70
2022-11-23T03:23:16.678Z,-1.70
2022-11-23T03:25:45.559Z,-1.70
2022-11-23T03:28:15.868Z,-1.70
2022-11-23T03:30:47.373Z,-1.70
2022-11-23T03:33:15.760Z,-1.80
2022-11-23T03:35:48.373Z,-1.70
2022-11-23T03:38:21.971Z,-1.70
2022-11-23T03:40:50.051Z,-1.70
2022-11-23T03:43:27.272Z,-1.70
2022-11-23T03:45:55.337Z,-1.80
2022-11-23T03:48:23.756Z,-1.90
2022-11-23T03:50:54.307Z,-1.90
2022-11-23T03:53:22.037Z,-1.90
2022-11-23T03:55:50.407Z,-1.90
2022-11-23T03:58:21.284Z,-1.90
2022-11-23T04:00:50.875Z,-1.90
2022-11-23T04:03:19.221Z,-2.00
2022-11-23T04:06:13.302Z,-2.10
2022-11-23T04:09:02.060Z,-2.10
2022-11-23T04:12:00.039Z,-2.10
2022-11-23T04:14:27.765Z,-2.10
2022-11-23T04:16:55.932Z,-2.10
2022-11-23T04:19:23.582Z,-2.10
2022-11-23T04:21:51.655Z,-2.10
2022-11-23T04:24:19.768Z,-2.10
2022-11-23T04:26:48.439Z,-2.00
2022-11-23T04:29:16.215Z,-2.00
2022-11-23T04:31:49.019Z,-2.00
2022-11-23T04:34:19.267Z,-2.00
2022-11-23T04:36:49.989Z,-2.00
2022-11-23T04:39:19.401Z,-2.00
2022-11-23T04:42:17.168Z,-1.90
2022-11-23T04:44:50.520Z,-1.90
2022-11-23T04:47:22.249Z,-1.90
2022-11-23T04:49:50.143Z,-1.90
2022-11-23T04:52:19.599Z,-1.90
2022-11-23T04:54:48.931Z,-1.80
2022-11-23T04:57:17.671Z,-1.80
2022-11-23T04:59:46.616Z,-1.80
2022-11-23T05:02:16.373Z,-1.80
2022-11-23T05:05:04.682Z,-1.90
2022-11-23T05:07:33.752Z,-1.80
2022-11-23T05:10:06.266Z,-1.70
2022-11-23T05:12:39.265Z,-1.70
2022-11-23T05:15:14.808Z,-1.60
2022-11-23T05:17:42.878Z,-1.60
2022-11-23T05:20:18.693Z,-1.50
2022-11-23T05:22:52.677Z,-1.60
2022-11-23T05:25:27.129Z,-1.50
2022-11-23T05:28:30.549Z,-1.50
2022-11-23T05:30:55.353Z,-1.50
2022-11-23T05:33:23.614Z,-1.50
2022-11-23T05:35:51.427Z,-1.50
2022-11-23T05:38:27.472Z,-1.50
2022-11-23T05:40:57.491Z,-1.50
2022-11-23T05:43:26.324Z,-1.50
2022-11-23T05:45:54.139Z,-1.50
2022-11-23T05:48:23.786Z,-1.60
2022-11-23T05:51:03.609Z,-1.60
2022-11-23T05:53:36.650Z,-1.70
2022-11-23T05:56:19.500Z,-1.70
2022-11-23T05:59:08.259Z,-1.80
2022-11-23T06:01:38.444Z,-1.80
2022-11-23T06:04:08.580Z,-1.70
2022-11-23T06:06:41.568Z,-1.70
2022-11-23T06:09:09.652Z,-1.70
2022-11-23T06:11:39.880Z,-1.80
2022-11-23T06:14:14.409Z,-1.80
2022-11-23T06:16:48.112Z,-1.90
2022-11-23T06:19:47.174Z,-1.90
2022-11-23T06:22:17.854Z,-2.00
2022-11-23T06:24:54.969Z,-1.90
2022-11-23T06:27:42.970Z,-1.90
2022-11-23T06:30:31.010Z,-1.90
2022-11-23T06:33:04.955Z,-1.80
2022-11-23T06:35:40.124Z,-1.90
2022-11-23T06:38:07.981Z,-1.80
2022-11-23T06:40:36.274Z,-1.80
2022-11-23T06:43:06.937Z,-1.80
2022-11-23T06:45:40.618Z,-1.80
2022-11-23T06:48:15.068Z,-1.80
2022-11-23T06:50:47.550Z,-1.70
2022-11-23T06:53:17.038Z,-1.70
2022-11-23T06:55:49.691Z,-1.70
2022-11-23T06:58:19.440Z,-1.70
2022-11-23T07:00:47.789Z,-1.80
2022-11-23T07:03:24.872Z,-1.80
2022-11-23T07:06:17.964Z,-1.80
2022-11-23T07:08:46.200Z,-1.70
2022-11-23T07:11:28.145Z,-1.70
2022-11-23T07:13:56.118Z,-1.70
2022-11-23T07:16:27.778Z,-1.70
2022-11-23T07:18:55.724Z,-1.60
2022-11-23T07:21:23.998Z,-1.60
2022-11-23T07:23:54.256Z,-1.60
2022-11-23T07:26:22.424Z,-1.60
2022-11-23T07:28:50.269Z,-1.50
2022-11-23T07:31:18.750Z,-1.50
2022-11-23T07:33:49.921Z,-1.50
2022-11-23T07:36:18.435Z,-1.40
2022-11-23T07:38:47.062Z,-1.40
2022-11-23T07:41:18.362Z,-1.40
2022-11-23T07:44:00.799Z,-1.40
2022-11-23T07:46:29.149Z,-1.40
2022-11-23T07:49:03.207Z,-1.50
2022-11-23T07:51:31.680Z,-1.50
2022-11-23T07:54:02.706Z,-1.60
2022-11-23T07:56:30.788Z,-1.60
2022-11-23T07:58:58.642Z,-1.50
2022-11-23T08:01:27.873Z,-1.60
2022-11-23T08:03:55.592Z,-1.50
2022-11-23T08:06:28.987Z,-1.50
2022-11-23T08:08:57.070Z,-1.50
2022-11-23T08:11:25.334Z,-1.60
2022-11-23T08:13:53.151Z,-1.60
2022-11-23T08:16:21.359Z,-1.60
2022-11-23T08:18:52.791Z,-1.70
2022-11-23T08:21:20.941Z,-1.70
2022-11-23T08:23:50.835Z,-1.70
2022-11-23T08:26:18.921Z,-1.70
2022-11-23T08:28:46.750Z,-1.70
2022-11-23T08:31:15.456Z,-1.60
2022-11-23T08:33:43.885Z,-1.60
2022-11-23T08:36:11.957Z,-1.60
2022-11-23T08:38:42.512Z,-1.50
2022-11-23T08:41:10.883Z,-1.50
2022-11-23T08:43:40.235Z,-1.50
2022-11-23T08:46:11.272Z,-1.40
2022-11-23T08:48:39.320Z,-1.40
2022-11-23T08:51:10.427Z,-1.30
2022-11-23T08:53:38.460Z,-1.30
2022-11-23T08:56:07.911Z,-1.20
2022-11-23T08:58:37.304Z,-1.20
2022-11-23T09:01:13.426Z,-1.20
2022-11-23T09:03:41.680Z,-1.30
2022-11-23T09:06:11.195Z,-1.30
2022-11-23T09:08:41.928Z,-1.20
2022-11-23T09:11:14.133Z,-1.30
2022-11-23T09:13:46.763Z,-1.30
2022-11-23T09:16:15.025Z,-1.30
2022-11-23T09:18:42.904Z,-1.30
2022-11-23T09:21:11.074Z,-1.20
2022-11-23T09:23:38.799Z,-1.20
2022-11-23T09:26:06.927Z,-1.20
2022-11-23T09:28:35.466Z,-1.20
2022-11-23T09:31:10.883Z,-1.20
2022-11-23T09:33:38.380Z,-1.20
2022-11-23T09:36:06.829Z,-1.30
2022-11-23T09:38:55.131Z,-1.40
2022-11-23T09:41:34.752Z,-1.30
2022-11-23T09:44:19.861Z,-1.40
2022-11-23T09:47:05.716Z,-1.40
2022-11-23T09:50:06.655Z,-1.40
2022-11-23T09:52:36.814Z,-1.40
2022-11-23T09:55:22.017Z,-1.30
2022-11-23T09:57:56.025Z,-1.40
2022-11-23T10:00:24.493Z,-1.30
2022-11-23T10:02:52.738Z,-1.20
2022-11-23T10:05:24.419Z,-1.20
2022-11-23T10:08:11.216Z,-1.20
2022-11-23T10:10:54.829Z,-1.20
2022-11-23T10:13:38.568Z,-1.20
2022-11-23T10:16:21.936Z,-1.20
2022-11-23T10:19:02.457Z,-1.20
2022-11-23T10:21:59.421Z,-1.20
2022-11-23T10:24:34.381Z,-1.10
2022-11-23T10:27:04.148Z,-1.00
2022-11-23T10:29:39.180Z,-1.00
2022-11-23T10:32:22.570Z,-0.90
2022-11-23T10:35:14.431Z,-0.90
2022-11-23T10:37:42.901Z,-1.00
2022-11-23T10:40:24.343Z,-1.00
2022-11-23T10:42:58.321Z,-1.10
2022-11-23T10:45:28.840Z,-1.10
2022-11-23T10:48:04.801Z,-1.10
2022-11-23T10:50:37.781Z,-1.10
2022-11-23T10:53:08.697Z,-1.00
2022-11-23T10:55:56.561Z,-1.10
2022-11-23T10:58:30.056Z,-1.10
2022-11-23T11:01:04.285Z,-1.10
2022-11-23T11:03:36.016Z,-1.00
2022-11-23T11:06:09.080Z,-1.00
2022-11-23T11:08:50.337Z,-1.00
2022-11-23T11:11:27.631Z,-1.00
2022-11-23T11:14:06.218Z,-1.00
2022-11-23T11:16:38.530Z,-1.00
2022-11-23T11:19:36.339Z,-1.00
2022-11-23T11:22:28.230Z,-0.90
2022-11-23T11:24:56.270Z,-0.90
2022-11-23T11:27:30.099Z,-0.90
2022-11-23T11:30:06.774Z,-0.90
2022-11-23T11:33:08.649Z,-0.90
2022-11-23T11:35:39.981Z,-0.90
2022-11-23T11:38:29.884Z,-0.90
2022-11-23T11:41:01.200Z,-0.90
2022-11-23T11:43:39.989Z,-0.90
2022-11-23T11:46:33.823Z,-0.90
2022-11-23T11:49:15.786Z,-0.90
2022-11-23T11:51:52.037Z,-0.90
2022-11-23T11:54:27.164Z,-0.90
2022-11-23T11:57:00.471Z,-0.90
2022-11-23T11:59:35.721Z,-0.90
2022-11-23T12:05:14.421Z,-0.80
2022-11-23T12:07:47.959Z,-0.80
2022-11-23T12:10:23.851Z,-0.70
2022-11-23T12:12:52.350Z,-0.60
2022-11-23T12:18:31.784Z,-0.70
2022-11-23T12:21:04.136Z,-0.60
2022-11-23T12:24:02.044Z,-0.50
2022-11-23T12:26:40.332Z,-0.50
2022-11-23T12:29:33.080Z,-0.50
2022-11-23T12:32:42.558Z,-0.50
2022-11-23T12:35:34.929Z,-0.40
2022-11-23T12:38:03.077Z,-0.40
2022-11-23T12:41:01.986Z,-0.50
2022-11-23T12:43:49.757Z,-0.50
2022-11-23T12:46:30.780Z,-0.50
2022-11-23T12:49:28.784Z,-0.50
2022-11-23T12:52:24.507Z,-0.60
2022-11-23T12:55:07.950Z,-0.60
2022-11-23T12:58:17.743Z,-0.60
2022-11-23T13:00:53.165Z,-0.60
2022-11-23T13:03:51.410Z,-0.60
2022-11-23T13:07:20.407Z,-0.70
2022-11-23T13:09:35.868Z,-0.70
2022-11-23T13:12:29.270Z,-0.70
2022-11-23T13:15:02.129Z,-0.70
2022-11-23T13:17:36.039Z,-0.70
2022-11-23T13:20:35.609Z,-0.80
2022-11-23T13:23:06.961Z,-0.80
2022-11-23T13:25:34.852Z,-0.80
2022-11-23T13:28:05.435Z,-0.80
2022-11-23T13:33:32.856Z,-0.90
2022-11-23T13:36:10.361Z,-0.80
2022-11-23T13:38:45.144Z,-0.80
2022-11-23T13:41:34.713Z,-0.80
2022-11-23T13:44:16.926Z,-0.80
2022-11-23T13:46:56.870Z,-0.70
2022-11-23T13:49:46.652Z,-0.70
2022-11-23T13:52:21.017Z,-0.70
2022-11-23T13:54:57.959Z,-0.60
2022-11-23T13:57:25.736Z,-0.60
2022-11-23T13:59:53.966Z,-0.50
2022-11-23T14:02:30.626Z,-0.60
2022-11-23T14:05:36.984Z,-0.60
2022-11-23T14:08:06.227Z,-0.60
2022-11-23T14:10:35.057Z,-0.60
2022-11-23T14:13:12.613Z,-0.60
2022-11-23T14:15:52.656Z,-0.60
2022-11-23T14:18:31.951Z,-0.70
2022-11-23T14:21:12.773Z,-0.70
2022-11-23T14:24:02.469Z,-0.70
2022-11-23T14:27:04.131Z,-0.70
2022-11-23T14:30:14.179Z,-0.80
2022-11-23T14:33:11.911Z,-0.80
2022-11-23T14:36:03.236Z,-0.70
2022-11-23T14:38:59.464Z,-0.80
2022-11-23T14:41:31.070Z,-0.80
2022-11-23T14:44:01.556Z,-0.80
2022-11-23T14:46:29.400Z,-0.90
2022-11-23T14:49:13.074Z,-0.80
2022-11-23T14:51:45.139Z,-0.80
2022-11-23T14:54:16.955Z,-0.80
2022-11-23T14:56:49.818Z,-0.80
2022-11-23T14:59:17.830Z,-0.80
2022-11-23T15:02:00.362Z,-0.80
2022-11-23T15:04:36.443Z,-0.70
2022-11-23T15:07:23.670Z,-0.70
2022-11-23T15:10:03.229Z,-0.70
2022-11-23T15:12:43.583Z,-0.80
2022-11-23T15:15:32.446Z,-0.70
2022-11-23T15:18:03.958Z,-0.80
2022-11-23T15:20:41.785Z,-0.80
2022-11-23T15:23:26.360Z,-0.80
2022-11-23T15:25:59.374Z,-0.70
2022-11-23T15:28:29.387Z,-0.80
2022-11-23T15:30:58.764Z,-0.80
2022-11-23T15:33:27.797Z,-0.80
2022-11-23T15:35:55.968Z,-0.80
2022-11-23T15:38:24.310Z,-0.80
2022-11-23T15:40:53.081Z,-0.80
2022-11-23T15:43:21.231Z,-0.70
2022-11-23T15:45:49.734Z,-0.80
2022-11-23T15:48:27.451Z,-0.80
2022-11-23T15:51:01.030Z,-0.80
2022-11-23T15:53:30.576Z,-0.80
2022-11-23T15:56:05.469Z,-0.80
2022-11-23T15:58:36.666Z,-0.80
2022-11-23T16:01:10.825Z,-0.70
2022-11-23T16:04:00.989Z,-0.80
2022-11-23T16:06:36.869Z,-0.80
2022-11-23T16:12:27.260Z,-0.70
2022-11-23T16:14:57.493Z,-0.70
2022-11-23T16:17:30.044Z,-0.70
2022-11-23T16:20:02.026Z,-0.70
2022-11-23T16:22:33.722Z,-0.70
2022-11-23T16:25:08.674Z,-0.70
2022-11-23T16:27:39.904Z,-0.70
2022-11-23T16:30:26.962Z,-0.70
2022-11-23T16:32:57.659Z,-0.70
2022-11-23T16:35:25.965Z,-0.70
2022-11-23T16:37:53.990Z,-0.70
2022-11-23T16:40:21.787Z,-0.70
2022-11-23T16:42:55.855Z,-0.70
2022-11-23T16:45:23.903Z,-0.70
2022-11-23T16:47:57.055Z,-0.80
2022-11-23T16:50:25.224Z,-0.80
2022-11-23T16:52:56.164Z,-0.70
2022-11-23T16:55:25.288Z,-0.70
2022-11-23T16:57:53.991Z,-0.70
2022-11-23T17:00:23.410Z,-0.70
2022-11-23T17:02:51.514Z,-0.70
2022-11-23T17:05:21.636Z,-0.70
2022-11-23T17:07:50.408Z,-0.80
2022-11-23T17:10:18.869Z,-0.80
2022-11-23T17:12:52.576Z,-0.80
2022-11-23T17:15:22.509Z,-0.90
2022-11-23T17:17:51.352Z,-1.00
2022-11-23T17:20:19.552Z,-1.00
2022-11-23T17:22:51.670Z,-1.00
2022-11-23T17:25:19.482Z,-1.00
2022-11-23T17:27:48.520Z,-1.00
2022-11-23T17:30:19.317Z,-1.00
2022-11-23T17:32:49.105Z,-1.00
2022-11-23T17:35:19.158Z,-1.00
2022-11-23T17:37:47.440Z,-1.00
2022-11-23T17:40:15.381Z,-1.00
2022-11-23T17:42:46.464Z,-0.90
2022-11-23T17:45:17.267Z,-0.90
2022-11-23T17:47:45.954Z,-0.90
2022-11-23T17:50:19.639Z,-0.90
2022-11-23T17:52:48.862Z,-1.00
2022-11-23T17:55:17.004Z,-1.00
2022-11-23T17:57:45.148Z,-0.90
2022-11-23T18:00:20.528Z,-1.00
2022-11-23T18:02:49.107Z,-1.00
2022-11-23T18:05:22.107Z,-1.00
2022-11-23T18:07:53.582Z,-1.00
2022-11-23T18:10:21.131Z,-1.10
2022-11-23T18:12:49.378Z,-1.10
2022-11-23T18:15:17.143Z,-1.10
2022-11-23T18:17:45.355Z,-1.10
2022-11-23T18:20:16.068Z,-1.10
2022-11-23T18:22:47.286Z,-1.10
2022-11-23T18:25:18.563Z,-1.10
2022-11-23T18:27:46.783Z,-1.10
2022-11-23T18:30:17.429Z,-1.10
2022-11-23T18:32:46.123Z,-1.10
2022-11-23T18:35:13.834Z,-1.00
2022-11-23T18:37:42.070Z,-1.10
2022-11-23T18:40:10.262Z,-1.00
2022-11-23T18:42:38.393Z,-1.00
2022-11-23T18:45:06.773Z,-1.10
2022-11-23T18:47:35.190Z,-1.00
2022-11-23T18:50:06.433Z,-1.00
2022-11-23T18:52:38.036Z,-1.00
2022-11-23T18:55:06.207Z,-1.00
2022-11-23T18:57:38.002Z,-1.00
2022-11-23T19:00:06.708Z,-1.10
2022-11-23T19:02:35.305Z,-1.10
2022-11-23T19:05:03.266Z,-1.10
2022-11-23T19:07:33.113Z,-1.00
2022-11-23T19:10:00.934Z,-1.00
2022-11-23T19:12:30.549Z,-1.10
2022-11-23T19:14:58.225Z,-1.10
2022-11-23T19:17:26.642Z,-1.10
2022-11-23T19:19:57.763Z,-1.20
2022-11-23T19:22:25.817Z,-1.20
2022-11-23T19:24:53.609Z,-1.20
2022-11-23T19:27:21.925Z,-1.20
2022-11-23T19:29:51.543Z,-1.10
2022-11-23T19:32:21.003Z,-1.10
2022-11-23T19:34:48.813Z,-1.10
2022-11-23T19:37:17.003Z,-1.10
2022-11-23T19:39:44.729Z,-1.10
2022-11-23T19:42:13.008Z,-1.10
2022-11-23T19:44:40.742Z,-1.10
2022-11-23T19:47:15.340Z,-1.10
2022-11-23T19:49:46.318Z,-1.10
2022-11-23T19:52:15.336Z,-1.10
2022-11-23T19:54:50.417Z,-1.10
2022-11-23T19:57:18.871Z,-1.10
2022-11-23T19:59:48.224Z,-1.10
2022-11-23T20:02:26.092Z,-1.00
2022-11-23T20:04:53.883Z,-1.10
2022-11-23T20:07:22.095Z,-1.10
2022-11-23T20:09:50.505Z,-1.10
2022-11-23T20:12:18.663Z,-1.10
2022-11-23T20:14:48.437Z,-1.00
2022-11-23T20:17:16.652Z,-1.10
2022-11-23T20:19:44.362Z,-1.10
2022-11-23T20:22:12.499Z,-1.20
2022-11-23T20:24:40.256Z,-1.20
2022-11-23T20:27:08.468Z,-1.20
2022-11-23T20:29:36.324Z,-1.20
2022-11-23T20:32:06.935Z,-1.20
2022-11-23T20:34:37.024Z,-1.20
2022-11-23T20:37:06.599Z,-1.20
2022-11-23T20:39:37.184Z,-1.30
2022-11-23T20:42:05.297Z,-1.20
2022-11-23T20:44:34.215Z,-1.20
2022-11-23T20:47:03.468Z,-1.30
2022-11-23T20:49:32.334Z,-1.20
2022-11-23T20:52:01.992Z,-1.20
2022-11-23T20:54:30.480Z,-1.20
2022-11-23T20:57:00.591Z,-1.20
2022-11-23T20:59:28.855Z,-1.10
2022-11-23T21:01:57.112Z,-1.10
2022-11-23T21:04:27.611Z,-1.10
2022-11-23T21:06:58.186Z,-1.10
2022-11-23T21:09:26.050Z,-1.10
2022-11-23T21:12:13.113Z,-1.10
2022-11-23T21:14:41.044Z,-1.00
2022-11-23T21:17:09.526Z,-1.00
2022-11-23T21:19:39.836Z,-1.00
2022-11-23T21:22:11.962Z,-1.00
2022-11-23T21:24:42.732Z,-1.00
2022-11-23T21:27:14.055Z,-1.00
2022-11-23T21:29:45.321Z,-0.90
2022-11-23T21:32:17.920Z,-0.90
2022-11-23T21:34:45.917Z,-0.90
2022-11-23T21:37:14.096Z,-0.90
2022-11-23T21:39:46.589Z,-0.80
2022-11-23T21:42:20.215Z,-0.90
2022-11-23T21:44:47.901Z,-0.90
2022-11-23T21:47:17.147Z,-0.90
2022-11-23T21:49:47.388Z,-0.90
2022-11-23T21:52:18.562Z,-0.90
2022-11-23T21:54:49.413Z,-0.90
2022-11-23T21:57:20.522Z,-0.90
2022-11-23T21:59:48.077Z,-0.90
2022-11-23T22:05:43.757Z,-1.00
2022-11-23T22:08:28.667Z,-1.00
2022-11-23T22:10:57.094Z,-1.10
2022-11-23T22:13:26.553Z,-1.10
2022-11-23T22:15:54.719Z,-1.10
2022-11-23T22:18:25.687Z,-1.10
2022-11-23T22:21:04.543Z,-1.20
2022-11-23T22:23:32.848Z,-1.20
2022-11-23T22:26:07.618Z,-1.20
2022-11-23T22:28:41.853Z,-1.20
2022-11-23T22:31:12.713Z,-1.20
2022-11-23T22:33:42.182Z,-1.20
2022-11-23T22:36:28.958Z,-1.10
2022-11-23T22:39:06.148Z,-1.20
2022-11-23T22:41:37.628Z,-1.10
2022-11-23T22:44:08.461Z,-1.20
2022-11-23T22:46:37.632Z,-1.20
2022-11-23T22:49:09.383Z,-1.20
2022-11-23T22:51:37.674Z,-1.20
2022-11-23T22:54:06.399Z,-1.20
2022-11-23T22:56:34.621Z,-1.20
2022-11-23T22:59:06.076Z,-1.10
2022-11-23T23:01:34.150Z,-1.10
2022-11-23T23:04:03.319Z,-1.10
2022-11-23T23:06:36.382Z,-1.10
2022-11-23T23:09:06.898Z,-1.10
2022-11-23T23:11:36.318Z,-1.20
2022-11-23T23:14:04.879Z,-1.10
2022-11-23T23:16:33.305Z,-1.20
2022-11-23T23:19:03.673Z,-1.20
2022-11-23T23:21:31.686Z,-1.20
2022-11-23T23:24:01.528Z,-1.20
2022-11-23T23:26:29.910Z,-1.20
2022-11-23T23:29:00.139Z,-1.20
2022-11-23T23:31:30.169Z,-1.20
2022-11-23T23:34:00.139Z,-1.20
2022-11-23T23:36:28.227Z,-1.20
2022-11-23T23:38:58.424Z,-1.20
2022-11-23T23:41:26.462Z,-1.20
2022-11-23T23:43:54.810Z,-1.10
2022-11-23T23:46:23.303Z,-1.10
2022-11-23T23:48:54.184Z,-1.00
2022-11-23T23:51:25.199Z,-1.00
2022-11-23T23:53:53.859Z,-1.00
2022-11-23T23:56:27.958Z,-0.90
2022-11-23T23:59:00.927Z,-0.90
